Terminal Aerodrome Forecast
Issued by NWS Detroit/Pontiac, MI

Home | Current Version | Previous Version | Text Only | Print | Product List | Glossary On
Versions: 1 2 3 4 5 6 7 8 9 10 11 12 13 14 15 16 17 18 19 20 21 22 23 24 25 26 27 28 29
000
FTUS43 KDTX 282056 AAB
TAFDTW
TAF AMD
KDTW 282056Z 2821/2924 16006KT 6SM -SHRA BR BKN050 OVC070
      TEMPO 2821/2823 3SM TSRA BR BKN030CB OVC040
     FM290200 26008KT 5SM BR BKN025
     FM290500 24006KT 6SM BR SCT018 BKN200
     FM291300 23012G22KT P6SM FEW025 SCT050
     FM291600 23015G25KT P6SM SCT050 BKN060=

USA.gov is the U.S. government's official web portal to all federal, state and local government web resources and services.